Time;durP1;ratioP1;P1;durP2;ratioP2;P2;SDS_P1;SDS_P2;PMS_P1;PMS_P2;Temp;Humidity;BMP_temperature;BMP_pressure;BME280_temperature;BME280_humidity;BME280_pressure;Samples;Min_cycle;Max_cycle;Signal;HPM_P1;HPM_P2
2021/04/25 00:12:47;;;;;;;7.17;4.40;;;;;;;3.94;80.97;100913.81;21028187;27;21107;-60
2021/04/25 00:32:45;;;;;;;6.63;4.23;;;;;;;3.64;78.94;100891.75;20922882;27;851661;-60
2021/04/25 00:52:44;;;;;;;8.07;4.90;;;;;;;3.51;84.56;100890.31;20860604;27;20607;-59
2021/04/25 01:02:45;;;;;;;7.17;4.70;;;;;;;3.48;86.25;100893.06;20871100;28;20276;-65
2021/04/25 01:22:42;;;;;;;7.47;4.03;;;;;;;3.61;81.74;100861.03;20870709;27;20598;-66
2021/04/25 02:02:39;;;;;;;5.17;3.70;;;;;;;3.05;89.30;100807.13;20776764;28;20608;-64
2021/04/25 02:22:36;;;;;;;6.27;4.30;;;;;;;2.92;92.59;100853.16;21059876;27;21331;-60
2021/04/25 02:32:37;;;;;;;5.93;4.03;;;;;;;2.76;90.63;100844.78;21036335;27;20249;-61
2021/04/25 02:52:32;;;;;;;6.33;3.30;;;;;;;2.69;87.43;100839.66;20925486;27;939565;-62
2021/04/25 03:02:33;;;;;;;7.00;3.80;;;;;;;2.40;88.34;100838.59;20949518;28;20241;-60
2021/04/25 03:12:33;;;;;;;6.53;3.70;;;;;;;2.27;90.01;100834.50;20940584;28;20676;-60
2021/04/25 03:42:26;;;;;;;4.90;3.03;;;;;;;1.62;96.11;100841.13;20883569;27;20604;-61
2021/04/25 03:52:27;;;;;;;6.33;3.93;;;;;;;1.68;99.83;100841.88;20874988;28;20220;-61
2021/04/25 04:12:25;;;;;;;14.87;8.53;;;;;;;2.92;95.98;100845.25;20787480;28;20566;-60
2021/04/25 04:22:25;;;;;;;8.60;6.17;;;;;;;3.04;93.08;100842.31;20783845;28;20221;-65
2021/04/25 04:32:26;;;;;;;8.90;6.27;;;;;;;3.57;93.12;100851.47;20782864;28;21010;-61
2021/04/25 04:42:26;;;;;;;8.37;5.67;;;;;;;3.97;87.08;100845.94;20792579;28;20224;-64
2021/04/25 04:52:26;;;;;;;8.50;5.23;;;;;;;4.15;85.93;100851.59;20870621;28;20368;-61
2021/04/25 05:02:27;;;;;;;11.90;6.43;;;;;;;4.43;85.36;100857.78;20849452;28;20255;-60
2021/04/25 05:12:28;;;;;;;7.37;5.10;;;;;;;4.45;81.06;100858.63;20932845;28;20823;-60
2021/04/25 05:22:28;;;;;;;4.93;3.60;;;;;;;4.44;79.46;100854.25;20880935;28;20243;-60
2021/04/25 05:32:30;;;;;;;3.97;3.37;;;;;;;4.44;77.88;100854.25;20884051;28;20227;-61
2021/04/25 05:52:30;;;;;;;4.50;3.40;;;;;;;4.72;73.99;100847.16;20860270;27;20642;-59
2021/04/25 06:02:31;;;;;;;3.23;2.80;;;;;;;5.00;72.86;100851.56;20916143;28;20229;-59
2021/04/25 06:12:32;;;;;;;4.97;3.37;;;;;;;5.36;73.34;100852.97;20908777;28;20224;-59
2021/04/25 06:22:32;;;;;;;2.50;2.23;;;;;;;5.73;66.94;100849.03;20918326;27;20225;-64
2021/04/25 06:32:33;;;;;;;2.53;1.85;;;;;;;6.04;65.56;100838.19;20902264;28;20699;-66
2021/04/25 06:42:35;;;;;;;2.70;2.17;;;;;;;6.24;67.13;100842.78;20918712;28;20222;-62
2021/04/25 06:52:36;;;;;;;3.33;2.20;;;;;;;6.48;62.65;100847.13;20921543;28;20214;-61
2021/04/25 07:02:37;;;;;;;1.80;1.40;;;;;;;6.63;61.13;100846.53;20868373;28;20223;-63
2021/04/25 07:12:37;;;;;;;1.15;0.90;;;;;;;6.75;59.10;100840.75;20844790;28;20725;-62
2021/04/25 07:22:38;;;;;;;1.13;0.90;;;;;;;6.98;55.50;100853.06;20872326;28;20246;-62
2021/04/25 07:32:39;;;;;;;0.80;0.80;;;;;;;7.15;52.68;100839.09;20881247;28;20223;-61
2021/04/25 07:52:37;;;;;;;0.93;0.80;;;;;;;7.41;51.84;100841.50;20796768;28;20584;-62
2021/04/25 08:02:38;;;;;;;0.63;0.60;;;;;;;7.67;52.26;100828.88;20771023;28;20298;-61
2021/04/25 08:12:38;;;;;;;0.98;0.85;;;;;;;8.03;52.91;100824.56;20787009;28;20643;-59
2021/04/25 08:22:39;;;;;;;0.60;0.60;;;;;;;8.79;50.93;100826.31;20766942;28;20212;-60
2021/04/25 08:32:39;;;;;;;0.60;0.60;;;;;;;9.55;50.60;100821.56;20788033;28;20225;-60
2021/04/25 08:42:41;;;;;;;0.80;0.80;;;;;;;10.18;45.12;100827.09;20771411;28;20207;-60
2021/04/25 08:52:44;;;;;;;1.93;0.70;;;;;;;10.08;42.64;100814.25;20785529;28;20466;-61
2021/04/25 09:02:45;;;;;;;1.07;0.60;;;;;;;11.39;46.33;100808.56;20727624;28;20220;-61
2021/04/25 09:12:46;;;;;;;0.70;0.70;;;;;;;12.39;47.81;100802.34;20717800;28;20217;-62
2021/04/25 09:22:51;;;;;;;0.70;0.70;;;;;;;12.23;40.61;100801.59;20727718;28;20761;-60
2021/04/25 09:33:09;;;;;;;0.63;0.63;;;;;;;11.22;35.78;100790.91;20693546;28;20306;-61
2021/04/25 09:43:12;;;;;;;0.53;0.53;;;;;;;10.81;41.15;100793.31;20742111;28;20241;-60
2021/04/25 09:53:17;;;;;;;0.80;0.77;;;;;;;11.17;41.79;100783.16;20706719;28;20259;-61
2021/04/25 10:03:19;;;;;;;1.00;0.80;;;;;;;11.88;43.71;100780.59;20666302;28;20221;-60
2021/04/25 10:13:20;;;;;;;1.30;1.03;;;;;;;11.49;36.81;100783.00;20625274;28;20283;-61
2021/04/25 10:23:21;;;;;;;0.83;0.83;;;;;;;11.55;41.96;100777.31;20639127;28;20714;-60
2021/04/25 10:33:21;;;;;;;0.90;0.90;;;;;;;11.29;38.01;100781.56;20628902;28;20213;-60
2021/04/25 10:43:26;;;;;;;1.50;1.03;;;;;;;9.81;41.65;100818.41;20633604;28;20233;-63
2021/04/25 10:53:29;;;;;;;2.43;1.30;;;;;;;8.43;46.94;100823.63;20635855;28;20227;-62
2021/04/25 11:03:30;;;;;;;2.13;1.20;;;;;;;8.41;46.49;100840.59;20623539;28;20227;-64
2021/04/25 11:13:33;;;;;;;2.43;1.10;;;;;;;9.26;44.52;100847.06;20641973;28;20232;-66
2021/04/25 11:23:34;;;;;;;1.23;1.13;;;;;;;9.73;46.50;100825.94;20621002;28;20228;-66
2021/04/25 11:33:35;;;;;;;1.77;1.10;;;;;;;9.74;46.80;100807.22;20640616;28;20241;-66
2021/04/25 11:43:41;;;;;;;1.37;1.10;;;;;;;10.36;42.05;100819.00;20617199;28;20763;-63
2021/04/25 11:53:41;;;;;;;1.10;0.93;;;;;;;10.26;41.59;100803.56;20636799;28;20232;-61
2021/04/25 12:03:49;;;;;;;1.30;1.20;;;;;;;10.55;42.33;100802.78;20600387;28;20228;-61
2021/04/25 12:13:49;;;;;;;2.00;1.33;;;;;;;9.85;44.56;100832.44;20587227;28;20234;-65
2021/04/25 12:23:53;;;;;;;1.23;0.50;;;;;;;9.96;40.72;100822.06;20610320;28;20273;-63
2021/04/25 12:33:58;;;;;;;0.60;0.60;;;;;;;10.30;40.65;100816.63;20615714;28;20233;-60
2021/04/25 12:43:58;;;;;;;1.40;1.00;;;;;;;10.79;40.25;100819.22;20627545;28;20338;-59
2021/04/25 12:54:04;;;;;;;1.13;0.87;;;;;;;10.99;38.78;100810.91;20601024;28;20314;-59
2021/04/25 13:04:23;;;;;;;2.13;1.43;;;;;;;11.31;37.64;100801.03;20618481;28;20574;-61
2021/04/25 13:14:23;;;;;;;2.07;1.20;;;;;;;10.75;42.41;100812.31;20600142;28;20228;-60
2021/04/25 13:24:24;;;;;;;1.70;1.20;;;;;;;10.90;41.50;100794.56;20616929;28;20244;-59
2021/04/25 13:34:24;;;;;;;0.90;0.90;;;;;;;10.82;43.28;100808.38;20619095;28;20687;-62
2021/04/25 13:44:25;;;;;;;2.40;1.33;;;;;;;10.14;43.51;100794.41;20642442;28;20221;-60
2021/04/25 13:54:25;;;;;;;2.50;1.10;;;;;;;9.49;41.67;100817.44;20638678;28;20766;-59
2021/04/25 14:04:26;;;;;;;3.40;1.27;;;;;;;9.33;46.36;100795.19;20633975;28;20282;-60
2021/04/25 14:14:27;;;;;;;3.40;2.90;;;;;;;9.59;45.62;100791.16;20659363;28;20217;-62
2021/04/25 14:24:27;;;;;;;2.93;1.87;;;;;;;10.17;45.97;100772.88;20624275;28;20585;-59
2021/04/25 14:34:28;;;;;;;1.50;1.40;;;;;;;10.49;46.94;100778.28;20640267;28;20221;-59
2021/04/25 14:44:28;;;;;;;2.13;1.50;;;;;;;10.45;43.12;100799.78;20620865;28;21188;-63
2021/04/25 14:54:29;;;;;;;1.57;1.33;;;;;;;9.38;42.36;100806.47;20639372;28;20230;-64
2021/04/25 15:04:29;;;;;;;1.75;1.50;;;;;;;8.97;44.96;100798.78;20625539;28;20330;-59
2021/04/25 15:14:30;;;;;;;1.53;1.30;;;;;;;9.28;45.90;100783.94;20637523;28;20223;-59
2021/04/25 15:24:31;;;;;;;1.83;1.60;;;;;;;8.51;46.59;100832.09;20630848;28;20308;-59
2021/04/25 15:34:31;;;;;;;1.90;1.77;;;;;;;8.06;51.27;100839.53;20628697;28;20700;-60
2021/04/25 15:44:32;;;;;;;3.17;2.40;;;;;;;7.79;51.68;100836.31;20638315;28;20229;-60
2021/04/25 16:04:28;;;;;;;3.40;1.93;;;;;;;7.22;54.28;100829.94;20881849;28;20836;-60
2021/04/25 16:14:29;;;;;;;2.87;1.90;;;;;;;7.07;54.89;100835.88;20834280;28;20216;-67
2021/04/25 16:24:29;;;;;;;4.60;2.60;;;;;;;7.07;57.30;100812.88;20889226;28;20449;-62
2021/04/25 16:34:29;;;;;;;3.13;1.80;;;;;;;7.74;52.22;100817.03;20917139;28;20464;-64
2021/04/25 16:54:30;;;;;;;2.03;1.83;;;;;;;7.14;56.68;100824.06;20791861;28;20577;-61
2021/04/25 17:04:31;;;;;;;2.37;1.60;;;;;;;6.64;55.27;100823.53;20773090;28;20299;-62
2021/04/25 17:14:31;;;;;;;4.07;1.33;;;;;;;6.62;58.48;100817.41;20704329;28;20775;-60
2021/04/25 17:24:32;;;;;;;6.73;4.03;;;;;;;6.91;56.64;100829.47;20689150;28;20248;-62
2021/04/25 17:44:28;;;;;;;3.20;2.90;;;;;;;6.11;59.25;100826.47;20942122;27;20522;-61
2021/04/25 17:54:29;;;;;;;3.27;2.50;;;;;;;5.61;61.60;100852.13;20875155;28;20227;-62
2021/04/25 18:04:30;;;;;;;5.57;3.77;;;;;;;5.21;63.89;100858.78;20853930;28;20275;-59
2021/04/25 18:14:30;;;;;;;3.83;3.40;;;;;;;4.88;66.51;100858.13;20850490;28;20637;-59
2021/04/25 18:24:31;;;;;;;5.80;3.50;;;;;;;4.61;68.93;100873.06;20830111;28;20981;-59
2021/04/25 18:34:32;;;;;;;4.45;3.42;;;;;;;4.28;68.16;100845.03;20828504;28;20940;-60
2021/04/25 18:44:33;;;;;;;3.57;2.70;;;;;;;4.46;69.05;100884.13;20832977;28;20825;-59
2021/04/25 18:54:34;;;;;;;2.27;2.07;;;;;;;4.40;70.72;100875.50;20772260;28;20223;-59
2021/04/25 19:04:34;;;;;;;6.07;3.83;;;;;;;4.31;71.17;100881.94;20780061;28;20260;-58
2021/04/25 19:24:29;;;;;;;7.83;5.27;;;;;;;3.80;73.64;100886.91;20876771;27;20567;-59
2021/04/25 20:24:10;;;;;;;10.23;5.40;;;;;;;2.31;86.23;100894.06;20788965;28;20581;-59
2021/04/25 20:34:11;;;;;;;6.45;3.70;;;;;;;2.09;86.49;100900.69;20790051;28;20307;-61
2021/04/25 21:04:03;;;;;;;8.33;5.17;;;;;;;1.71;88.88;100886.50;20872927;27;20580;-61
2021/04/25 21:24:00;;;;;;;13.20;6.40;;;;;;;1.45;90.42;100875.59;21053305;27;20538;-65
2021/04/25 21:34:03;;;;;;;12.20;5.80;;;;;;;1.27;90.59;100870.69;21016213;28;20208;-59
2021/04/25 21:44:03;;;;;;;13.17;6.90;;;;;;;1.05;91.28;100860.56;20958356;28;20312;-63
2021/04/25 22:04:00;;;;;;;10.63;5.67;;;;;;;0.77;93.68;100875.00;21051493;27;943112;-58
2021/04/25 22:53:48;;;;;;;6.57;4.87;;;;;;;0.23;100.00;100859.19;20770379;28;20333;-61
2021/04/25 23:03:49;;;;;;;10.00;5.37;;;;;;;0.12;100.00;100858.44;20709386;28;21000;-58
2021/04/25 23:13:49;;;;;;;8.38;5.35;;;;;;;0.27;100.00;100858.22;20686175;28;20213;-58
2021/04/25 23:33:46;;;;;;;10.27;4.80;;;;;;;0.58;100.00;100819.28;20779419;28;20331;-63
